sensor_id;sensor_type;location;lat;lon;timestamp;P1;durP1;ratioP1;P2;durP2;ratioP2
13347;SDS011;6743;49.934;9.138;2024-03-06T00:00:06;3.03;;;2.63;;
13347;SDS011;6743;49.934;9.138;2024-03-06T00:02:33;3.83;;;2.60;;
13347;SDS011;6743;49.934;9.138;2024-03-06T00:04:59;2.87;;;2.67;;
13347;SDS011;6743;49.934;9.138;2024-03-06T00:07:25;2.87;;;2.67;;
13347;SDS011;6743;49.934;9.138;2024-03-06T00:09:51;2.90;;;2.50;;
13347;SDS011;6743;49.934;9.138;2024-03-06T00:12:19;4.37;;;2.63;;
13347;SDS011;6743;49.934;9.138;2024-03-06T00:14:45;3.37;;;3.07;;
13347;SDS011;6743;49.934;9.138;2024-03-06T00:17:11;3.57;;;3.13;;
13347;SDS011;6743;49.934;9.138;2024-03-06T00:19:36;4.53;;;2.80;;
13347;SDS011;6743;49.934;9.138;2024-03-06T00:22:03;3.73;;;2.97;;
13347;SDS011;6743;49.934;9.138;2024-03-06T00:24:29;3.33;;;3.03;;
13347;SDS011;6743;49.934;9.138;2024-03-06T00:26:55;3.67;;;2.73;;
13347;SDS011;6743;49.934;9.138;2024-03-06T00:29:21;3.80;;;3.10;;
13347;SDS011;6743;49.934;9.138;2024-03-06T00:31:47;4.07;;;3.30;;
13347;SDS011;6743;49.934;9.138;2024-03-06T00:34:13;3.53;;;2.77;;
13347;SDS011;6743;49.934;9.138;2024-03-06T00:36:40;2.53;;;2.17;;
13347;SDS011;6743;49.934;9.138;2024-03-06T00:39:06;4.83;;;3.37;;
13347;SDS011;6743;49.934;9.138;2024-03-06T00:41:33;4.20;;;2.90;;
13347;SDS011;6743;49.934;9.138;2024-03-06T00:43:59;4.40;;;2.80;;
13347;SDS011;6743;49.934;9.138;2024-03-06T00:46:26;5.00;;;2.83;;
13347;SDS011;6743;49.934;9.138;2024-03-06T00:48:52;3.27;;;2.90;;
13347;SDS011;6743;49.934;9.138;2024-03-06T00:51:18;3.83;;;2.90;;
13347;SDS011;6743;49.934;9.138;2024-03-06T00:53:44;3.13;;;2.60;;
13347;SDS011;6743;49.934;9.138;2024-03-06T00:56:10;2.60;;;2.40;;
13347;SDS011;6743;49.934;9.138;2024-03-06T00:58:36;2.87;;;2.67;;
13347;SDS011;6743;49.934;9.138;2024-03-06T01:01:02;4.67;;;3.17;;
13347;SDS011;6743;49.934;9.138;2024-03-06T01:03:29;2.97;;;2.70;;
13347;SDS011;6743;49.934;9.138;2024-03-06T01:05:54;5.13;;;3.07;;
13347;SDS011;6743;49.934;9.138;2024-03-06T01:08:21;4.37;;;3.00;;
13347;SDS011;6743;49.934;9.138;2024-03-06T01:10:47;5.20;;;2.70;;
13347;SDS011;6743;49.934;9.138;2024-03-06T01:13:13;4.23;;;3.10;;
13347;SDS011;6743;49.934;9.138;2024-03-06T01:15:39;4.13;;;2.97;;
13347;SDS011;6743;49.934;9.138;2024-03-06T01:18:05;3.53;;;3.23;;
13347;SDS011;6743;49.934;9.138;2024-03-06T01:20:31;3.97;;;2.77;;
13347;SDS011;6743;49.934;9.138;2024-03-06T01:22:57;3.33;;;2.50;;
13347;SDS011;6743;49.934;9.138;2024-03-06T01:25:24;3.20;;;2.60;;
13347;SDS011;6743;49.934;9.138;2024-03-06T01:27:50;2.47;;;2.27;;
13347;SDS011;6743;49.934;9.138;2024-03-06T01:30:16;4.37;;;2.97;;
13347;SDS011;6743;49.934;9.138;2024-03-06T01:32:42;6.37;;;3.23;;
13347;SDS011;6743;49.934;9.138;2024-03-06T01:35:08;3.03;;;2.83;;
13347;SDS011;6743;49.934;9.138;2024-03-06T01:37:35;2.93;;;2.53;;
13347;SDS011;6743;49.934;9.138;2024-03-06T01:40:01;4.60;;;3.50;;
13347;SDS011;6743;49.934;9.138;2024-03-06T01:42:29;3.50;;;3.03;;
13347;SDS011;6743;49.934;9.138;2024-03-06T01:44:55;3.07;;;2.10;;
13347;SDS011;6743;49.934;9.138;2024-03-06T01:47:21;3.07;;;2.33;;
13347;SDS011;6743;49.934;9.138;2024-03-06T01:49:47;3.20;;;2.50;;
13347;SDS011;6743;49.934;9.138;2024-03-06T01:52:14;4.33;;;3.27;;
13347;SDS011;6743;49.934;9.138;2024-03-06T01:54:43;3.23;;;2.90;;
13347;SDS011;6743;49.934;9.138;2024-03-06T01:57:10;3.07;;;2.77;;
13347;SDS011;6743;49.934;9.138;2024-03-06T01:59:38;4.43;;;3.10;;
13347;SDS011;6743;49.934;9.138;2024-03-06T02:02:05;3.80;;;2.77;;
13347;SDS011;6743;49.934;9.138;2024-03-06T02:04:32;3.43;;;3.13;;
13347;SDS011;6743;49.934;9.138;2024-03-06T02:06:59;5.50;;;3.87;;
13347;SDS011;6743;49.934;9.138;2024-03-06T02:09:25;4.47;;;3.10;;
13347;SDS011;6743;49.934;9.138;2024-03-06T02:11:52;5.40;;;3.63;;
13347;SDS011;6743;49.934;9.138;2024-03-06T02:14:18;4.83;;;3.40;;
13347;SDS011;6743;49.934;9.138;2024-03-06T02:16:45;3.10;;;2.80;;
13347;SDS011;6743;49.934;9.138;2024-03-06T02:19:11;5.43;;;3.50;;
13347;SDS011;6743;49.934;9.138;2024-03-06T02:21:38;3.00;;;2.63;;
13347;SDS011;6743;49.934;9.138;2024-03-06T02:24:04;2.90;;;2.30;;
13347;SDS011;6743;49.934;9.138;2024-03-06T02:26:30;2.33;;;2.13;;
13347;SDS011;6743;49.934;9.138;2024-03-06T02:28:56;3.33;;;3.03;;
13347;SDS011;6743;49.934;9.138;2024-03-06T02:31:22;3.57;;;2.70;;
13347;SDS011;6743;49.934;9.138;2024-03-06T02:33:50;2.87;;;2.67;;
13347;SDS011;6743;49.934;9.138;2024-03-06T02:36:16;3.93;;;3.03;;
13347;SDS011;6743;49.934;9.138;2024-03-06T02:38:43;4.23;;;2.97;;
13347;SDS011;6743;49.934;9.138;2024-03-06T02:41:10;3.37;;;3.07;;
13347;SDS011;6743;49.934;9.138;2024-03-06T02:43:36;4.20;;;2.93;;
13347;SDS011;6743;49.934;9.138;2024-03-06T02:46:03;3.03;;;2.80;;
13347;SDS011;6743;49.934;9.138;2024-03-06T02:48:29;3.30;;;2.57;;
13347;SDS011;6743;49.934;9.138;2024-03-06T02:50:55;3.20;;;2.67;;
13347;SDS011;6743;49.934;9.138;2024-03-06T02:53:21;2.63;;;2.00;;
13347;SDS011;6743;49.934;9.138;2024-03-06T02:55:48;3.83;;;2.90;;
13347;SDS011;6743;49.934;9.138;2024-03-06T02:58:14;4.13;;;2.97;;
13347;SDS011;6743;49.934;9.138;2024-03-06T03:00:41;3.70;;;2.80;;
13347;SDS011;6743;49.934;9.138;2024-03-06T03:03:07;4.57;;;3.33;;
13347;SDS011;6743;49.934;9.138;2024-03-06T03:05:33;4.57;;;3.30;;
13347;SDS011;6743;49.934;9.138;2024-03-06T03:07:59;4.57;;;3.47;;
13347;SDS011;6743;49.934;9.138;2024-03-06T03:10:25;2.57;;;2.27;;
13347;SDS011;6743;49.934;9.138;2024-03-06T03:12:52;2.37;;;1.93;;
13347;SDS011;6743;49.934;9.138;2024-03-06T03:15:19;3.77;;;2.23;;
13347;SDS011;6743;49.934;9.138;2024-03-06T03:17:45;3.80;;;2.80;;
13347;SDS011;6743;49.934;9.138;2024-03-06T03:20:11;2.77;;;2.47;;
13347;SDS011;6743;49.934;9.138;2024-03-06T03:22:37;5.70;;;3.10;;
13347;SDS011;6743;49.934;9.138;2024-03-06T03:25:06;2.23;;;1.97;;
13347;SDS011;6743;49.934;9.138;2024-03-06T03:27:33;2.50;;;2.30;;
13347;SDS011;6743;49.934;9.138;2024-03-06T03:29:59;2.80;;;2.60;;
13347;SDS011;6743;49.934;9.138;2024-03-06T03:32:25;3.43;;;2.77;;
13347;SDS011;6743;49.934;9.138;2024-03-06T03:34:51;3.73;;;2.37;;
13347;SDS011;6743;49.934;9.138;2024-03-06T03:37:17;3.27;;;2.80;;
13347;SDS011;6743;49.934;9.138;2024-03-06T03:39:43;3.23;;;2.50;;
13347;SDS011;6743;49.934;9.138;2024-03-06T03:42:09;5.07;;;2.57;;
13347;SDS011;6743;49.934;9.138;2024-03-06T03:44:35;3.23;;;2.63;;
13347;SDS011;6743;49.934;9.138;2024-03-06T03:47:02;3.23;;;2.60;;
13347;SDS011;6743;49.934;9.138;2024-03-06T03:49:28;3.53;;;2.17;;
13347;SDS011;6743;49.934;9.138;2024-03-06T03:51:54;2.07;;;1.97;;
13347;SDS011;6743;49.934;9.138;2024-03-06T03:54:20;2.33;;;2.13;;
13347;SDS011;6743;49.934;9.138;2024-03-06T03:56:45;3.47;;;1.97;;
13347;SDS011;6743;49.934;9.138;2024-03-06T03:59:11;4.60;;;2.30;;
13347;SDS011;6743;49.934;9.138;2024-03-06T04:01:37;3.47;;;2.70;;
13347;SDS011;6743;49.934;9.138;2024-03-06T04:04:04;3.40;;;2.40;;
13347;SDS011;6743;49.934;9.138;2024-03-06T04:06:30;2.43;;;2.20;;
13347;SDS011;6743;49.934;9.138;2024-03-06T04:08:56;3.17;;;2.60;;
13347;SDS011;6743;49.934;9.138;2024-03-06T04:11:22;3.17;;;2.43;;
13347;SDS011;6743;49.934;9.138;2024-03-06T04:13:48;4.20;;;3.10;;
13347;SDS011;6743;49.934;9.138;2024-03-06T04:16:15;5.63;;;3.70;;
13347;SDS011;6743;49.934;9.138;2024-03-06T04:18:42;3.40;;;2.57;;
13347;SDS011;6743;49.934;9.138;2024-03-06T04:21:09;2.40;;;1.80;;
13347;SDS011;6743;49.934;9.138;2024-03-06T04:23:35;1.83;;;1.73;;
13347;SDS011;6743;49.934;9.138;2024-03-06T04:26:02;2.57;;;2.37;;
13347;SDS011;6743;49.934;9.138;2024-03-06T04:28:28;2.77;;;2.40;;
13347;SDS011;6743;49.934;9.138;2024-03-06T04:30:55;2.37;;;2.17;;
13347;SDS011;6743;49.934;9.138;2024-03-06T04:33:21;2.57;;;2.37;;
13347;SDS011;6743;49.934;9.138;2024-03-06T04:35:47;2.70;;;2.50;;
13347;SDS011;6743;49.934;9.138;2024-03-06T04:38:13;3.60;;;2.93;;
13347;SDS011;6743;49.934;9.138;2024-03-06T04:40:40;4.80;;;2.90;;
13347;SDS011;6743;49.934;9.138;2024-03-06T04:43:06;2.60;;;2.33;;
13347;SDS011;6743;49.934;9.138;2024-03-06T04:45:32;3.10;;;2.50;;
13347;SDS011;6743;49.934;9.138;2024-03-06T04:47:58;3.57;;;3.07;;
13347;SDS011;6743;49.934;9.138;2024-03-06T04:50:24;2.53;;;2.33;;
13347;SDS011;6743;49.934;9.138;2024-03-06T04:52:52;2.43;;;2.23;;
13347;SDS011;6743;49.934;9.138;2024-03-06T04:55:19;3.20;;;2.83;;
13347;SDS011;6743;49.934;9.138;2024-03-06T04:57:48;2.43;;;2.23;;
13347;SDS011;6743;49.934;9.138;2024-03-06T05:00:14;3.33;;;2.80;;
13347;SDS011;6743;49.934;9.138;2024-03-06T05:02:41;2.50;;;2.30;;
13347;SDS011;6743;49.934;9.138;2024-03-06T05:05:07;2.80;;;2.60;;
13347;SDS011;6743;49.934;9.138;2024-03-06T05:07:34;2.13;;;1.83;;
13347;SDS011;6743;49.934;9.138;2024-03-06T05:10:00;3.57;;;2.57;;
13347;SDS011;6743;49.934;9.138;2024-03-06T05:12:27;4.00;;;3.23;;
13347;SDS011;6743;49.934;9.138;2024-03-06T05:14:53;3.07;;;2.63;;
13347;SDS011;6743;49.934;9.138;2024-03-06T05:17:20;3.30;;;2.50;;
13347;SDS011;6743;49.934;9.138;2024-03-06T05:19:47;4.63;;;2.53;;
13347;SDS011;6743;49.934;9.138;2024-03-06T05:22:14;2.60;;;1.90;;
13347;SDS011;6743;49.934;9.138;2024-03-06T05:24:40;3.10;;;2.80;;
13347;SDS011;6743;49.934;9.138;2024-03-06T05:27:07;3.60;;;2.97;;
13347;SDS011;6743;49.934;9.138;2024-03-06T05:29:35;3.20;;;2.90;;
13347;SDS011;6743;49.934;9.138;2024-03-06T05:32:01;3.77;;;3.30;;
13347;SDS011;6743;49.934;9.138;2024-03-06T05:34:28;4.67;;;3.50;;
13347;SDS011;6743;49.934;9.138;2024-03-06T05:36:57;3.20;;;2.53;;
13347;SDS011;6743;49.934;9.138;2024-03-06T05:39:23;2.70;;;2.50;;
13347;SDS011;6743;49.934;9.138;2024-03-06T05:41:49;3.57;;;3.00;;
13347;SDS011;6743;49.934;9.138;2024-03-06T05:44:15;2.80;;;2.60;;
13347;SDS011;6743;49.934;9.138;2024-03-06T05:46:42;3.50;;;3.17;;
13347;SDS011;6743;49.934;9.138;2024-03-06T05:49:08;4.60;;;3.17;;
13347;SDS011;6743;49.934;9.138;2024-03-06T05:51:34;3.00;;;2.80;;
13347;SDS011;6743;49.934;9.138;2024-03-06T05:54:00;5.33;;;3.53;;
13347;SDS011;6743;49.934;9.138;2024-03-06T05:56:26;4.70;;;2.50;;
13347;SDS011;6743;49.934;9.138;2024-03-06T05:58:52;3.37;;;2.63;;
13347;SDS011;6743;49.934;9.138;2024-03-06T06:01:19;2.17;;;2.07;;
13347;SDS011;6743;49.934;9.138;2024-03-06T06:03:46;2.43;;;2.30;;
13347;SDS011;6743;49.934;9.138;2024-03-06T06:06:14;4.47;;;3.10;;
13347;SDS011;6743;49.934;9.138;2024-03-06T06:08:40;3.27;;;2.97;;
13347;SDS011;6743;49.934;9.138;2024-03-06T06:11:06;3.03;;;2.73;;
13347;SDS011;6743;49.934;9.138;2024-03-06T06:13:33;2.57;;;2.20;;
13347;SDS011;6743;49.934;9.138;2024-03-06T06:15:59;2.37;;;2.20;;
13347;SDS011;6743;49.934;9.138;2024-03-06T06:18:27;4.33;;;3.10;;
13347;SDS011;6743;49.934;9.138;2024-03-06T06:20:54;5.30;;;3.07;;
13347;SDS011;6743;49.934;9.138;2024-03-06T06:23:20;2.67;;;2.17;;
13347;SDS011;6743;49.934;9.138;2024-03-06T06:25:46;2.90;;;2.40;;
13347;SDS011;6743;49.934;9.138;2024-03-06T06:28:12;3.90;;;2.73;;
13347;SDS011;6743;49.934;9.138;2024-03-06T06:30:38;3.23;;;2.60;;
13347;SDS011;6743;49.934;9.138;2024-03-06T06:33:04;3.30;;;3.00;;
13347;SDS011;6743;49.934;9.138;2024-03-06T06:35:30;2.80;;;2.60;;
13347;SDS011;6743;49.934;9.138;2024-03-06T06:37:57;2.77;;;2.50;;
13347;SDS011;6743;49.934;9.138;2024-03-06T06:40:23;3.17;;;2.47;;
13347;SDS011;6743;49.934;9.138;2024-03-06T06:42:49;4.03;;;2.93;;
13347;SDS011;6743;49.934;9.138;2024-03-06T06:45:15;3.23;;;2.37;;
13347;SDS011;6743;49.934;9.138;2024-03-06T06:47:42;4.53;;;2.80;;
13347;SDS011;6743;49.934;9.138;2024-03-06T06:50:09;2.80;;;2.10;;
13347;SDS011;6743;49.934;9.138;2024-03-06T06:52:36;2.47;;;2.27;;
13347;SDS011;6743;49.934;9.138;2024-03-06T06:55:03;2.63;;;2.43;;
13347;SDS011;6743;49.934;9.138;2024-03-06T06:57:30;2.03;;;1.87;;
13347;SDS011;6743;49.934;9.138;2024-03-06T06:59:56;3.90;;;2.90;;
13347;SDS011;6743;49.934;9.138;2024-03-06T07:02:22;3.20;;;2.90;;
13347;SDS011;6743;49.934;9.138;2024-03-06T07:04:48;3.97;;;3.07;;
13347;SDS011;6743;49.934;9.138;2024-03-06T07:07:15;4.23;;;3.17;;
13347;SDS011;6743;49.934;9.138;2024-03-06T07:09:42;4.90;;;3.30;;
13347;SDS011;6743;49.934;9.138;2024-03-06T07:12:09;3.67;;;3.27;;
13347;SDS011;6743;49.934;9.138;2024-03-06T07:14:35;5.37;;;3.77;;
13347;SDS011;6743;49.934;9.138;2024-03-06T07:17:01;5.67;;;3.80;;
13347;SDS011;6743;49.934;9.138;2024-03-06T07:19:28;4.30;;;2.73;;
13347;SDS011;6743;49.934;9.138;2024-03-06T07:21:54;6.90;;;3.63;;
13347;SDS011;6743;49.934;9.138;2024-03-06T07:24:20;4.90;;;4.30;;
13347;SDS011;6743;49.934;9.138;2024-03-06T07:26:46;4.93;;;3.30;;
13347;SDS011;6743;49.934;9.138;2024-03-06T07:29:12;4.60;;;3.33;;
13347;SDS011;6743;49.934;9.138;2024-03-06T07:31:40;3.90;;;3.60;;
13347;SDS011;6743;49.934;9.138;2024-03-06T07:34:06;4.50;;;3.63;;
13347;SDS011;6743;49.934;9.138;2024-03-06T07:36:33;6.83;;;3.77;;
13347;SDS011;6743;49.934;9.138;2024-03-06T07:38:59;5.07;;;3.77;;
13347;SDS011;6743;49.934;9.138;2024-03-06T07:41:26;4.13;;;3.37;;
13347;SDS011;6743;49.934;9.138;2024-03-06T07:43:51;5.10;;;3.93;;
13347;SDS011;6743;49.934;9.138;2024-03-06T07:46:18;4.60;;;3.33;;
13347;SDS011;6743;49.934;9.138;2024-03-06T07:48:44;5.80;;;5.17;;
13347;SDS011;6743;49.934;9.138;2024-03-06T07:51:10;6.80;;;4.40;;
13347;SDS011;6743;49.934;9.138;2024-03-06T07:53:36;6.07;;;3.50;;
13347;SDS011;6743;49.934;9.138;2024-03-06T07:56:02;5.27;;;3.40;;
13347;SDS011;6743;49.934;9.138;2024-03-06T07:58:30;6.17;;;4.77;;
13347;SDS011;6743;49.934;9.138;2024-03-06T08:00:56;4.73;;;4.00;;
13347;SDS011;6743;49.934;9.138;2024-03-06T08:03:24;6.23;;;4.00;;
13347;SDS011;6743;49.934;9.138;2024-03-06T08:05:50;4.20;;;2.70;;
13347;SDS011;6743;49.934;9.138;2024-03-06T08:08:17;5.43;;;3.77;;
13347;SDS011;6743;49.934;9.138;2024-03-06T08:10:43;4.53;;;3.60;;
13347;SDS011;6743;49.934;9.138;2024-03-06T08:13:10;3.07;;;2.80;;
13347;SDS011;6743;49.934;9.138;2024-03-06T08:15:36;6.93;;;4.30;;
13347;SDS011;6743;49.934;9.138;2024-03-06T08:18:02;5.67;;;3.17;;
13347;SDS011;6743;49.934;9.138;2024-03-06T08:20:29;6.83;;;4.27;;
13347;SDS011;6743;49.934;9.138;2024-03-06T08:22:55;5.27;;;4.07;;
13347;SDS011;6743;49.934;9.138;2024-03-06T08:25:21;4.07;;;3.60;;
13347;SDS011;6743;49.934;9.138;2024-03-06T08:27:48;5.70;;;3.50;;
13347;SDS011;6743;49.934;9.138;2024-03-06T08:30:14;6.43;;;4.73;;
13347;SDS011;6743;49.934;9.138;2024-03-06T08:32:40;6.30;;;4.00;;
13347;SDS011;6743;49.934;9.138;2024-03-06T08:35:08;4.53;;;3.30;;
13347;SDS011;6743;49.934;9.138;2024-03-06T08:37:36;5.30;;;3.63;;
13347;SDS011;6743;49.934;9.138;2024-03-06T08:40:04;7.70;;;4.40;;
13347;SDS011;6743;49.934;9.138;2024-03-06T08:42:32;12.47;;;8.03;;
13347;SDS011;6743;49.934;9.138;2024-03-06T08:44:58;5.10;;;3.93;;
13347;SDS011;6743;49.934;9.138;2024-03-06T08:47:24;6.07;;;4.50;;
13347;SDS011;6743;49.934;9.138;2024-03-06T08:49:50;5.97;;;4.20;;
13347;SDS011;6743;49.934;9.138;2024-03-06T08:52:16;6.87;;;4.00;;
13347;SDS011;6743;49.934;9.138;2024-03-06T08:54:43;5.20;;;3.40;;
13347;SDS011;6743;49.934;9.138;2024-03-06T08:57:09;6.20;;;4.87;;
13347;SDS011;6743;49.934;9.138;2024-03-06T08:59:35;5.80;;;4.00;;
13347;SDS011;6743;49.934;9.138;2024-03-06T09:02:11;9.10;;;4.37;;
13347;SDS011;6743;49.934;9.138;2024-03-06T09:04:38;6.40;;;3.90;;
13347;SDS011;6743;49.934;9.138;2024-03-06T09:07:04;5.37;;;3.33;;
13347;SDS011;6743;49.934;9.138;2024-03-06T09:09:31;5.27;;;4.03;;
13347;SDS011;6743;49.934;9.138;2024-03-06T09:11:59;4.23;;;3.83;;
13347;SDS011;6743;49.934;9.138;2024-03-06T09:14:25;12.83;;;4.77;;
13347;SDS011;6743;49.934;9.138;2024-03-06T09:16:51;7.30;;;4.53;;
13347;SDS011;6743;49.934;9.138;2024-03-06T09:19:17;6.53;;;4.53;;
13347;SDS011;6743;49.934;9.138;2024-03-06T09:21:43;6.53;;;3.90;;
13347;SDS011;6743;49.934;9.138;2024-03-06T09:24:09;9.10;;;4.97;;
13347;SDS011;6743;49.934;9.138;2024-03-06T09:26:35;7.10;;;4.40;;
13347;SDS011;6743;49.934;9.138;2024-03-06T09:29:02;9.33;;;5.90;;
13347;SDS011;6743;49.934;9.138;2024-03-06T09:31:29;6.67;;;4.70;;
13347;SDS011;6743;49.934;9.138;2024-03-06T09:33:55;9.17;;;5.50;;
13347;SDS011;6743;49.934;9.138;2024-03-06T09:36:21;8.67;;;5.67;;
13347;SDS011;6743;49.934;9.138;2024-03-06T09:38:47;8.43;;;4.40;;
13347;SDS011;6743;49.934;9.138;2024-03-06T09:41:13;10.93;;;6.10;;
13347;SDS011;6743;49.934;9.138;2024-03-06T09:43:39;7.57;;;5.30;;
13347;SDS011;6743;49.934;9.138;2024-03-06T09:46:07;15.50;;;6.00;;
13347;SDS011;6743;49.934;9.138;2024-03-06T09:48:33;8.73;;;5.70;;
13347;SDS011;6743;49.934;9.138;2024-03-06T09:51:00;7.63;;;5.70;;
13347;SDS011;6743;49.934;9.138;2024-03-06T09:53:27;7.57;;;5.50;;
13347;SDS011;6743;49.934;9.138;2024-03-06T09:55:53;8.57;;;5.33;;
13347;SDS011;6743;49.934;9.138;2024-03-06T09:58:22;11.23;;;6.50;;
13347;SDS011;6743;49.934;9.138;2024-03-06T10:00:51;7.50;;;5.27;;
13347;SDS011;6743;49.934;9.138;2024-03-06T10:03:19;9.13;;;5.90;;
13347;SDS011;6743;49.934;9.138;2024-03-06T10:05:45;11.00;;;6.37;;
13347;SDS011;6743;49.934;9.138;2024-03-06T10:08:11;10.77;;;6.20;;
13347;SDS011;6743;49.934;9.138;2024-03-06T10:10:41;8.93;;;5.93;;
13347;SDS011;6743;49.934;9.138;2024-03-06T10:13:07;11.53;;;5.53;;
13347;SDS011;6743;49.934;9.138;2024-03-06T10:15:33;8.53;;;4.87;;
13347;SDS011;6743;49.934;9.138;2024-03-06T10:18:11;10.70;;;6.33;;
13347;SDS011;6743;49.934;9.138;2024-03-06T10:20:39;9.23;;;6.10;;
13347;SDS011;6743;49.934;9.138;2024-03-06T10:23:11;8.50;;;5.17;;
13347;SDS011;6743;49.934;9.138;2024-03-06T10:25:37;9.37;;;5.37;;
13347;SDS011;6743;49.934;9.138;2024-03-06T10:28:04;11.20;;;6.30;;
13347;SDS011;6743;49.934;9.138;2024-03-06T10:30:32;7.97;;;4.57;;
13347;SDS011;6743;49.934;9.138;2024-03-06T10:33:00;6.83;;;4.80;;
13347;SDS011;6743;49.934;9.138;2024-03-06T10:35:26;6.17;;;5.07;;
13347;SDS011;6743;49.934;9.138;2024-03-06T10:37:54;7.40;;;4.87;;
13347;SDS011;6743;49.934;9.138;2024-03-06T10:40:21;11.70;;;4.93;;
13347;SDS011;6743;49.934;9.138;2024-03-06T10:42:48;12.50;;;5.43;;
13347;SDS011;6743;49.934;9.138;2024-03-06T10:45:15;7.43;;;4.80;;
13347;SDS011;6743;49.934;9.138;2024-03-06T10:47:46;7.40;;;5.03;;
13347;SDS011;6743;49.934;9.138;2024-03-06T10:50:13;8.93;;;4.87;;
13347;SDS011;6743;49.934;9.138;2024-03-06T10:52:40;7.87;;;4.80;;
13347;SDS011;6743;49.934;9.138;2024-03-06T10:55:08;8.13;;;5.40;;
13347;SDS011;6743;49.934;9.138;2024-03-06T10:57:36;6.43;;;4.07;;
13347;SDS011;6743;49.934;9.138;2024-03-06T11:00:03;6.90;;;4.87;;
13347;SDS011;6743;49.934;9.138;2024-03-06T11:02:30;7.40;;;4.90;;
13347;SDS011;6743;49.934;9.138;2024-03-06T11:04:57;8.53;;;4.80;;
13347;SDS011;6743;49.934;9.138;2024-03-06T11:07:24;7.10;;;4.77;;
13347;SDS011;6743;49.934;9.138;2024-03-06T11:09:52;8.57;;;5.37;;
13347;SDS011;6743;49.934;9.138;2024-03-06T11:12:32;9.53;;;5.23;;
13347;SDS011;6743;49.934;9.138;2024-03-06T11:14:59;8.57;;;4.83;;
13347;SDS011;6743;49.934;9.138;2024-03-06T11:17:26;7.75;;;5.18;;
13347;SDS011;6743;49.934;9.138;2024-03-06T11:20:08;8.17;;;5.63;;
13347;SDS011;6743;49.934;9.138;2024-03-06T11:28:36;7.18;;;4.75;;
13347;SDS011;6743;49.934;9.138;2024-03-06T11:31:03;6.47;;;4.57;;
13347;SDS011;6743;49.934;9.138;2024-03-06T11:33:37;8.93;;;4.00;;
13347;SDS011;6743;49.934;9.138;2024-03-06T11:36:14;5.72;;;4.47;;
13347;SDS011;6743;49.934;9.138;2024-03-06T11:38:42;8.40;;;5.25;;
13347;SDS011;6743;49.934;9.138;2024-03-06T11:41:08;10.85;;;5.65;;
13347;SDS011;6743;49.934;9.138;2024-03-06T11:43:42;6.43;;;4.30;;
13347;SDS011;6743;49.934;9.138;2024-03-06T11:46:08;6.40;;;4.62;;
13347;SDS011;6743;49.934;9.138;2024-03-06T11:48:34;6.97;;;4.37;;
13347;SDS011;6743;49.934;9.138;2024-03-06T11:51:01;9.60;;;5.62;;
13347;SDS011;6743;49.934;9.138;2024-03-06T11:53:28;5.05;;;3.75;;
13347;SDS011;6743;49.934;9.138;2024-03-06T11:55:55;7.78;;;4.70;;
13347;SDS011;6743;49.934;9.138;2024-03-06T11:58:21;8.15;;;5.00;;
13347;SDS011;6743;49.934;9.138;2024-03-06T12:00:49;7.82;;;4.97;;
13347;SDS011;6743;49.934;9.138;2024-03-06T12:03:17;7.25;;;4.93;;
13347;SDS011;6743;49.934;9.138;2024-03-06T12:05:43;8.43;;;5.03;;
13347;SDS011;6743;49.934;9.138;2024-03-06T12:08:09;6.25;;;3.50;;
13347;SDS011;6743;49.934;9.138;2024-03-06T12:10:36;6.72;;;4.28;;
13347;SDS011;6743;49.934;9.138;2024-03-06T12:13:03;5.35;;;3.37;;
13347;SDS011;6743;49.934;9.138;2024-03-06T12:15:29;10.45;;;4.18;;
13347;SDS011;6743;49.934;9.138;2024-03-06T12:17:55;6.55;;;3.45;;
13347;SDS011;6743;49.934;9.138;2024-03-06T12:20:23;3.75;;;3.30;;
13347;SDS011;6743;49.934;9.138;2024-03-06T12:22:51;7.53;;;3.72;;
13347;SDS011;6743;49.934;9.138;2024-03-06T12:25:18;5.03;;;3.12;;
13347;SDS011;6743;49.934;9.138;2024-03-06T12:27:45;5.50;;;3.92;;
13347;SDS011;6743;49.934;9.138;2024-03-06T12:30:11;5.40;;;4.07;;
13347;SDS011;6743;49.934;9.138;2024-03-06T12:32:38;4.93;;;3.20;;
13347;SDS011;6743;49.934;9.138;2024-03-06T12:35:05;4.95;;;3.65;;
13347;SDS011;6743;49.934;9.138;2024-03-06T12:37:32;6.90;;;4.00;;
13347;SDS011;6743;49.934;9.138;2024-03-06T12:39:58;3.40;;;2.60;;
13347;SDS011;6743;49.934;9.138;2024-03-06T12:42:24;4.80;;;3.55;;
13347;SDS011;6743;49.934;9.138;2024-03-06T12:44:50;4.75;;;2.92;;
13347;SDS011;6743;49.934;9.138;2024-03-06T12:47:17;4.03;;;3.10;;
13347;SDS011;6743;49.934;9.138;2024-03-06T12:49:43;5.03;;;3.03;;
13347;SDS011;6743;49.934;9.138;2024-03-06T12:52:09;5.60;;;3.25;;
13347;SDS011;6743;49.934;9.138;2024-03-06T12:54:35;9.23;;;4.00;;
13347;SDS011;6743;49.934;9.138;2024-03-06T12:57:01;5.32;;;2.87;;
13347;SDS011;6743;49.934;9.138;2024-03-06T12:59:27;5.20;;;3.80;;
13347;SDS011;6743;49.934;9.138;2024-03-06T13:01:54;6.35;;;3.58;;
13347;SDS011;6743;49.934;9.138;2024-03-06T13:04:19;6.30;;;3.95;;
13347;SDS011;6743;49.934;9.138;2024-03-06T13:06:45;4.53;;;2.87;;
13347;SDS011;6743;49.934;9.138;2024-03-06T13:09:12;7.37;;;3.87;;
13347;SDS011;6743;49.934;9.138;2024-03-06T13:11:38;5.60;;;3.95;;
13347;SDS011;6743;49.934;9.138;2024-03-06T13:14:05;7.32;;;3.80;;
13347;SDS011;6743;49.934;9.138;2024-03-06T13:16:31;6.32;;;4.37;;
13347;SDS011;6743;49.934;9.138;2024-03-06T13:18:57;7.30;;;3.65;;
13347;SDS011;6743;49.934;9.138;2024-03-06T13:21:25;7.22;;;4.10;;
13347;SDS011;6743;49.934;9.138;2024-03-06T13:23:51;3.90;;;2.90;;
13347;SDS011;6743;49.934;9.138;2024-03-06T13:26:18;5.28;;;3.50;;
13347;SDS011;6743;49.934;9.138;2024-03-06T13:28:44;4.45;;;3.53;;
13347;SDS011;6743;49.934;9.138;2024-03-06T13:31:11;7.90;;;4.37;;
13347;SDS011;6743;49.934;9.138;2024-03-06T13:33:37;8.18;;;4.57;;
13347;SDS011;6743;49.934;9.138;2024-03-06T13:36:03;5.10;;;3.25;;
13347;SDS011;6743;49.934;9.138;2024-03-06T13:38:29;5.97;;;3.80;;
13347;SDS011;6743;49.934;9.138;2024-03-06T13:40:55;4.85;;;3.58;;
13347;SDS011;6743;49.934;9.138;2024-03-06T13:43:22;5.07;;;2.85;;
13347;SDS011;6743;49.934;9.138;2024-03-06T13:45:49;4.80;;;3.85;;
13347;SDS011;6743;49.934;9.138;2024-03-06T13:48:15;5.35;;;3.25;;
13347;SDS011;6743;49.934;9.138;2024-03-06T13:50:42;5.35;;;2.87;;
13347;SDS011;6743;49.934;9.138;2024-03-06T13:53:08;6.53;;;3.87;;
13347;SDS011;6743;49.934;9.138;2024-03-06T13:55:34;4.90;;;3.55;;
13347;SDS011;6743;49.934;9.138;2024-03-06T13:58:00;6.50;;;3.47;;
13347;SDS011;6743;49.934;9.138;2024-03-06T14:00:27;7.60;;;3.40;;
13347;SDS011;6743;49.934;9.138;2024-03-06T14:02:53;4.70;;;2.92;;
13347;SDS011;6743;49.934;9.138;2024-03-06T14:05:19;4.90;;;3.58;;
13347;SDS011;6743;49.934;9.138;2024-03-06T14:07:50;4.80;;;3.40;;
13347;SDS011;6743;49.934;9.138;2024-03-06T14:10:16;4.72;;;2.83;;
13347;SDS011;6743;49.934;9.138;2024-03-06T14:12:45;5.22;;;3.00;;
13347;SDS011;6743;49.934;9.138;2024-03-06T14:15:11;5.75;;;3.40;;
13347;SDS011;6743;49.934;9.138;2024-03-06T14:17:38;6.60;;;3.67;;
13347;SDS011;6743;49.934;9.138;2024-03-06T14:20:04;5.20;;;3.60;;
13347;SDS011;6743;49.934;9.138;2024-03-06T14:22:31;4.20;;;3.28;;
13347;SDS011;6743;49.934;9.138;2024-03-06T14:24:57;3.30;;;2.95;;
13347;SDS011;6743;49.934;9.138;2024-03-06T14:27:23;5.97;;;3.35;;
13347;SDS011;6743;49.934;9.138;2024-03-06T14:29:49;7.80;;;3.62;;
13347;SDS011;6743;49.934;9.138;2024-03-06T14:32:16;5.53;;;3.25;;
13347;SDS011;6743;49.934;9.138;2024-03-06T14:34:44;3.28;;;2.83;;
13347;SDS011;6743;49.934;9.138;2024-03-06T14:37:10;4.97;;;3.70;;
13347;SDS011;6743;49.934;9.138;2024-03-06T14:39:37;3.90;;;3.12;;
13347;SDS011;6743;49.934;9.138;2024-03-06T14:42:03;4.22;;;2.87;;
13347;SDS011;6743;49.934;9.138;2024-03-06T14:44:29;7.57;;;3.60;;
13347;SDS011;6743;49.934;9.138;2024-03-06T14:46:56;4.03;;;3.35;;
13347;SDS011;6743;49.934;9.138;2024-03-06T14:49:22;4.12;;;2.83;;
13347;SDS011;6743;49.934;9.138;2024-03-06T14:51:48;5.75;;;3.53;;
13347;SDS011;6743;49.934;9.138;2024-03-06T14:54:14;4.45;;;2.97;;
13347;SDS011;6743;49.934;9.138;2024-03-06T14:56:40;5.40;;;3.92;;
13347;SDS011;6743;49.934;9.138;2024-03-06T14:59:06;6.65;;;3.37;;
13347;SDS011;6743;49.934;9.138;2024-03-06T15:01:33;6.45;;;4.03;;